Oakwood, Texas
Current Conditions -  °F | °C
As of 10:20 AM on Saturday 20 Dec 2014 (Local Time) from KPSN Reporting Station
Overcast Overcast  
Wind Chill: 45°   Ceiling: 600
Heat Index: 49°   Visibility: 10mi
Dew Point: 46°   Wind: 7mph
Humidity: 92%   Direction: 80°E
Pressure: 30.26"   Gusts: NA
Location:  31.58°N, 95.85°W
Report Text: KPSN 201620Z AUTO 08006KT 10SM OVC006 09/07 A3026 RMK AO2 T00920079
Loading
Personal Weather Stations






























Interactive Weather Map New forecast layout! Learn more

10-Day Weather Forecast

Advertisements
Track Severe Weather on mobile